Garfield, AR

10:10 AM CDT on July 05, 2015 (GMT -0500)
Sky Ranch Airfield | | Change Station
CLOSE
Current Station
Personal Weather Station
Location: Busch, AR
Elevation: 1064 ft
Nearby Weather Stations

Elev 1064 ft 36.46 °N, 93.82 °W | Updated 32 seconds ago

Partly Cloudy
Partly Cloudy
85.8 °F
Feels Like 95 °F
N
2.9
Wind Variable Wind from South
Gusts 5.0 mph

Today
High -- | Low -- °F
--% Chance of Precip.
Yesterday
High -- | Low -- °F
Precip. -- in
6:03 AM 8:36 PM
Waning Gibbous, 84% visible
Pressure 30.03 in
Visibility 10.0 miles
Clouds Few 2100 ft
Heat Index 95 °F
Dew Point 75 °F
Humidity 70%
Rainfall 0.00 in
Snow Depth Not available.
UV 6 out of 12
Pollen 3.90 out of 12
Air Quality Not available.
Flu Activity Not available.
METAR KROG 051457Z 21004KT 10SM FEW021 28/22 A3007 RMK AO2 SLP167 T02780222 53002

More Conditions Fewer Conditions

Pressure 30.03 in
Visibility 10.0 miles
Clouds Few 2100 ft
Heat Index 95 °F
Dew Point 75 °F
Humidity 70%
Rainfall 0.00 in
Snow Depth Not available.
UV 6 out of 12
Pollen 3.90 out of 12
Air Quality Not available.
Flu Activity Not available.
METAR KROG 051457Z 21004KT 10SM FEW021 28/22 A3007 RMK AO2 SLP167 T02780222 53002

More Conditions Fewer Conditions

Nowcast | as of 10:03 am CDT on July 5, 2015

At 10 am...National Weather Service radars continued to detect thunderstorms and rainshowers over portions of northeast Oklahoma. This activity was located over the northwestern corner of Osage County...from just east of Burbank to Grainola. Movement was to the east northeast at 25 miles an hour. Through 11 am...thunderstorms and rainshowers will continue across portions of northern northeast Oklahoma...from Foraker to Copan. Any of the stronger storms will be capable of producing brief heavy rainfall and dangerous cloud to ground lightning.

×

10-Day Weather Forecast

×

Almanac

Astronomy

Jul. 05, 2015 Rise Set
Actual Time
Civil Twilight
Nautical Twilight
Astronomical Twilight
Moon
Length of Visible Light
Length of Day
Tomorrow will be .
, % of the Moon is Illuminated

Today's Extremes

State Highs State Lows

Community

WunderPhotos

Upload Photos

1,835,282 photos uploaded!

WunderBlogs® & News

Nearby

Air Quality

  Air Quality AQ Index Pollutant
Not available.

Snow Depth

Station Depth Elevation

Earthquake Activity

City Distance Mag. Time & Date
Minimum magnitude displayed is 2.5.

Coastal Water Temperatures

Place Temperature

Stations

Nearby Weather Stations

Station Location Temp. Windchill Dew Point Humidity Wind Precip. Elev Updated Type